Time;durP1;ratioP1;P1;durP2;ratioP2;P2;SDS_P1;SDS_P2;PMS_P1;PMS_P2;Temp;Humidity;BMP_temperature;BMP_pressure;BME280_temperature;BME280_humidity;BME280_pressure;Samples;Min_cycle;Max_cycle;Signal;HPM_P1;HPM_P2
2020/12/28 00:01:44;;;;;;;25.50;12.55;;;;;;;;;;5055512;28;20552;-79
2020/12/28 00:04:12;;;;;;;20.42;11.23;;;;;;;;;;5055657;28;20032;-79
2020/12/28 00:06:44;;;;;;;26.52;14.55;;;;;;;;;;5054853;28;20052;-78
2020/12/28 00:09:12;;;;;;;28.30;15.68;;;;;;;;;;5055624;28;20514;-79
2020/12/28 00:11:40;;;;;;;124.60;55.10;;;;;;;;;;5041151;28;20060;-79
2020/12/28 00:14:09;;;;;;;28.80;14.60;;;;;;;;;;5071838;28;20059;-78
2020/12/28 00:16:36;;;;;;;33.42;16.17;;;;;;;;;;5054520;28;20051;-78
2020/12/28 00:19:04;;;;;;;24.75;14.88;;;;;;;;;;5045134;28;20083;-78
2020/12/28 00:21:31;;;;;;;28.85;14.05;;;;;;;;;;5069243;28;20483;-78
2020/12/28 00:23:59;;;;;;;22.98;12.52;;;;;;;;;;5055092;28;20083;-78
2020/12/28 00:26:26;;;;;;;24.27;13.18;;;;;;;;;;5070867;28;20048;-78
2020/12/28 00:28:54;;;;;;;26.45;14.63;;;;;;;;;;5073790;28;20054;-79
2020/12/28 00:31:21;;;;;;;24.73;13.73;;;;;;;;;;5049793;28;20467;-76
2020/12/28 00:33:49;;;;;;;22.70;12.85;;;;;;;;;;5050702;28;20468;-76
2020/12/28 00:36:16;;;;;;;23.63;13.73;;;;;;;;;;5072669;28;20563;-77
2020/12/28 00:38:44;;;;;;;26.88;14.05;;;;;;;;;;5051408;28;20064;-78
2020/12/28 00:41:12;;;;;;;21.50;12.95;;;;;;;;;;5051637;28;20116;-77
2020/12/28 00:43:41;;;;;;;23.48;13.57;;;;;;;;;;5067530;28;20142;-77
2020/12/28 00:46:11;;;;;;;25.23;14.23;;;;;;;;;;5051354;28;20064;-77
2020/12/28 00:48:39;;;;;;;30.38;14.77;;;;;;;;;;5051014;28;20149;-77
2020/12/28 00:51:10;;;;;;;33.13;15.13;;;;;;;;;;5034055;28;20061;-78
2020/12/28 00:53:39;;;;;;;26.37;14.50;;;;;;;;;;5054241;28;20072;-77
2020/12/28 00:56:08;;;;;;;34.40;17.15;;;;;;;;;;5034898;28;20048;-77
2020/12/28 00:58:36;;;;;;;33.97;16.50;;;;;;;;;;5034399;28;20056;-78
2020/12/28 01:01:07;;;;;;;34.17;15.57;;;;;;;;;;5034903;28;20053;-77
2020/12/28 01:03:35;;;;;;;29.60;15.32;;;;;;;;;;5072397;28;20073;-77
2020/12/28 01:06:24;;;;;;;29.40;15.18;;;;;;;;;;5044252;28;20041;-78
2020/12/28 01:09:25;;;;;;;26.30;14.57;;;;;;;;;;5040102;28;20076;-78
2020/12/28 01:11:57;;;;;;;30.20;16.52;;;;;;;;;;5055402;28;20052;-78
2020/12/28 01:14:25;;;;;;;;;;;;;;;;;;5019056;28;20041;-78
2020/12/28 01:16:53;;;;;;;25.85;13.90;;;;;;;;;;5067695;28;19931;-78
2020/12/28 01:19:21;;;;;;;29.08;16.63;;;;;;;;;;5052747;28;20060;-78
2020/12/28 01:21:49;;;;;;;29.05;15.68;;;;;;;;;;5050486;28;20045;-78
2020/12/28 01:24:17;;;;;;;27.08;15.05;;;;;;;;;;5018082;28;20061;-78
2020/12/28 01:26:47;;;;;;;25.75;15.32;;;;;;;;;;5055140;28;20045;-78
2020/12/28 01:29:16;;;;;;;31.20;15.13;;;;;;;;;;5037643;28;20477;-79
2020/12/28 01:31:48;;;;;;;24.48;13.10;;;;;;;;;;5061855;28;20041;-79
2020/12/28 01:34:35;;;;;;;23.27;14.50;;;;;;;;;;5062257;28;20113;-79
2020/12/28 01:37:05;;;;;;;25.60;13.25;;;;;;;;;;5062040;28;20102;-79
2020/12/28 01:39:48;;;;;;;23.70;12.80;;;;;;;;;;5064080;28;20053;-79
2020/12/28 01:42:16;;;;;;;24.98;14.13;;;;;;;;;;5053525;28;20044;-79
2020/12/28 01:44:50;;;;;;;27.13;13.73;;;;;;;;;;5039732;28;20107;-78
2020/12/28 01:47:24;;;;;;;25.38;12.85;;;;;;;;;;5027466;28;20044;-78
2020/12/28 01:49:54;;;;;;;25.50;12.93;;;;;;;;;;5073001;28;20057;-78
2020/12/28 01:52:22;;;;;;;24.50;13.48;;;;;;;;;;5055688;28;20439;-76
2020/12/28 01:54:52;;;;;;;27.27;15.93;;;;;;;;;;5054425;28;20049;-77
2020/12/28 01:57:21;;;;;;;23.90;13.60;;;;;;;;;;5037437;28;20037;-77
2020/12/28 01:59:58;;;;;;;21.90;12.40;;;;;;;;;;5041493;28;20057;-76
2020/12/28 02:02:41;;;;;;;23.88;13.63;;;;;;;;;;5074404;28;20099;-77
2020/12/28 02:05:21;;;;;;;25.63;12.10;;;;;;;;;;5039560;28;20494;-78
2020/12/28 02:07:53;;;;;;;22.17;12.25;;;;;;;;;;5037454;28;20060;-78
2020/12/28 02:10:23;;;;;;;19.83;11.02;;;;;;;;;;5070316;28;20075;-78
2020/12/28 02:12:51;;;;;;;20.20;12.88;;;;;;;;;;5037437;28;20844;-77
2020/12/28 02:15:19;;;;;;;22.08;12.02;;;;;;;;;;5037889;28;20088;-77
2020/12/28 02:18:06;;;;;;;21.15;11.43;;;;;;;;;;5067932;28;20101;-78
2020/12/28 02:21:00;;;;;;;21.02;13.45;;;;;;;;;;5044189;28;20045;-78
2020/12/28 02:23:28;;;;;;;24.10;13.40;;;;;;;;;;5052728;28;20431;-78
2020/12/28 02:25:56;;;;;;;23.45;12.60;;;;;;;;;;5036499;28;20053;-78
2020/12/28 02:28:25;;;;;;;23.05;12.43;;;;;;;;;;5052391;28;20151;-77
2020/12/28 02:30:53;;;;;;;22.35;12.65;;;;;;;;;;5052459;28;20084;-77
2020/12/28 02:33:47;;;;;;;28.77;13.98;;;;;;;;;;5046727;28;20518;-77
2020/12/28 02:36:22;;;;;;;28.02;15.55;;;;;;;;;;5029452;28;20086;-77
2020/12/28 02:38:51;;;;;;;24.63;13.85;;;;;;;;;;5060018;28;20044;-77
2020/12/28 02:41:20;;;;;;;25.50;13.50;;;;;;;;;;5035774;28;20540;-77
2020/12/28 02:44:06;;;;;;;20.27;11.90;;;;;;;;;;5060866;28;20048;-77
2020/12/28 02:46:52;;;;;;;21.42;12.10;;;;;;;;;;5060534;28;20468;-78
2020/12/28 02:49:38;;;;;;;27.33;14.07;;;;;;;;;;5053619;28;20056;-78
2020/12/28 02:52:25;;;;;;;27.05;16.40;;;;;;;;;;5060198;28;20045;-78
2020/12/28 02:55:12;;;;;;;26.30;14.95;;;;;;;;;;5054758;28;20037;-78
2020/12/28 02:58:00;;;;;;;27.20;13.88;;;;;;;;;;5060361;28;20044;-77
2020/12/28 03:00:46;;;;;;;23.70;12.43;;;;;;;;;;5069025;28;20057;-78
2020/12/28 03:03:32;;;;;;;26.25;13.27;;;;;;;;;;5068885;28;20118;-77
2020/12/28 03:06:18;;;;;;;22.08;13.88;;;;;;;;;;5046309;28;20045;-77
2020/12/28 03:09:04;;;;;;;22.27;12.48;;;;;;;;;;5074368;28;20037;-78
2020/12/28 03:11:50;;;;;;;22.45;11.77;;;;;;;;;;5060455;28;20496;-77
2020/12/28 03:14:36;;;;;;;27.33;12.95;;;;;;;;;;5073126;28;20053;-77
2020/12/28 03:17:22;;;;;;;18.55;10.98;;;;;;;;;;5056673;28;20469;-77
2020/12/28 03:20:08;;;;;;;20.60;12.13;;;;;;;;;;5068575;28;20105;-78
2020/12/28 03:22:54;;;;;;;25.77;13.23;;;;;;;;;;5057467;28;20585;-76
2020/12/28 03:25:40;;;;;;;22.27;12.98;;;;;;;;;;5059178;28;20492;-76
2020/12/28 03:28:27;;;;;;;20.48;11.52;;;;;;;;;;5067777;28;20045;-78
2020/12/28 03:31:17;;;;;;;19.88;11.18;;;;;;;;;;5024849;28;20053;-78
2020/12/28 03:34:04;;;;;;;23.98;12.68;;;;;;;;;;5028380;28;20057;-78
2020/12/28 03:36:50;;;;;;;21.73;12.98;;;;;;;;;;5026362;28;20516;-78
2020/12/28 03:39:36;;;;;;;22.73;13.30;;;;;;;;;;5031233;28;20133;-78
2020/12/28 03:42:26;;;;;;;22.23;13.50;;;;;;;;;;5014663;28;20064;-78
2020/12/28 03:45:12;;;;;;;23.63;12.48;;;;;;;;;;5026280;28;20042;-78
2020/12/28 03:47:59;;;;;;;21.90;12.63;;;;;;;;;;5030704;28;20046;-78
2020/12/28 03:50:46;;;;;;;20.48;11.75;;;;;;;;;;5015183;28;20571;-78
2020/12/28 03:53:31;;;;;;;22.30;12.68;;;;;;;;;;5026356;28;20133;-78
2020/12/28 03:56:19;;;;;;;31.83;12.77;;;;;;;;;;5026408;28;20046;-78
2020/12/28 03:59:04;;;;;;;25.83;14.52;;;;;;;;;;5011419;28;20056;-78
2020/12/28 04:01:51;;;;;;;24.38;13.82;;;;;;;;;;5012150;28;20054;-78
2020/12/28 04:04:37;;;;;;;23.13;12.82;;;;;;;;;;5029117;28;20402;-77
2020/12/28 04:07:23;;;;;;;21.98;13.02;;;;;;;;;;5012422;28;20050;-78
2020/12/28 04:10:09;;;;;;;22.13;13.30;;;;;;;;;;5053703;28;20049;-78
2020/12/28 04:13:00;;;;;;;23.95;12.73;;;;;;;;;;5030998;28;20045;-78
2020/12/28 04:15:28;;;;;;;23.40;13.38;;;;;;;;;;5030341;28;20208;-79
2020/12/28 04:17:56;;;;;;;25.38;13.73;;;;;;;;;;5017589;28;20205;-78
2020/12/28 04:20:24;;;;;;;23.88;11.98;;;;;;;;;;4997701;28;20062;-78
2020/12/28 04:22:51;;;;;;;26.20;11.80;;;;;;;;;;5030149;28;20148;-78
2020/12/28 04:25:19;;;;;;;20.00;11.38;;;;;;;;;;5014297;28;20088;-78
2020/12/28 04:27:46;;;;;;;22.13;12.45;;;;;;;;;;5013042;28;20144;-77
2020/12/28 04:30:14;;;;;;;18.52;11.52;;;;;;;;;;5011863;28;20452;-76
2020/12/28 04:32:41;;;;;;;24.17;12.00;;;;;;;;;;5028485;28;20061;-77
2020/12/28 04:35:09;;;;;;;20.42;13.55;;;;;;;;;;5013016;28;20065;-79
2020/12/28 04:37:36;;;;;;;20.00;13.10;;;;;;;;;;5014085;28;20061;-78
2020/12/28 04:40:05;;;;;;;22.85;13.43;;;;;;;;;;5014146;28;20042;-78
2020/12/28 04:42:33;;;;;;;21.85;12.77;;;;;;;;;;5014420;28;20504;-78
2020/12/28 04:45:01;;;;;;;26.15;14.50;;;;;;;;;;5030753;28;20061;-78
2020/12/28 04:47:28;;;;;;;25.20;13.50;;;;;;;;;;5014337;28;20444;-78
2020/12/28 04:49:56;;;;;;;24.13;11.70;;;;;;;;;;5031061;28;20420;-78
2020/12/28 04:52:25;;;;;;;20.00;11.27;;;;;;;;;;5033853;28;20095;-77
2020/12/28 04:54:53;;;;;;;21.38;12.35;;;;;;;;;;5049973;28;20102;-77
2020/12/28 04:57:21;;;;;;;22.00;12.02;;;;;;;;;;5052600;28;20516;-78
2020/12/28 04:59:56;;;;;;;19.50;11.50;;;;;;;;;;5048947;28;20076;-77
2020/12/28 05:02:25;;;;;;;18.67;9.82;;;;;;;;;;5032621;28;20057;-78
2020/12/28 05:05:03;;;;;;;16.30;10.05;;;;;;;;;;5049252;28;20041;-78
2020/12/28 05:07:33;;;;;;;17.63;9.70;;;;;;;;;;5055651;28;20047;-77
2020/12/28 05:10:02;;;;;;;17.15;9.80;;;;;;;;;;5071786;28;20150;-78
2020/12/28 05:12:29;;;;;;;15.27;9.70;;;;;;;;;;5054854;28;20067;-79
2020/12/28 05:15:08;;;;;;;20.77;9.63;;;;;;;;;;5088482;28;20036;-79
2020/12/28 05:17:35;;;;;;;18.83;10.60;;;;;;;;;;5041987;28;20139;-79
2020/12/28 05:20:04;;;;;;;17.63;10.38;;;;;;;;;;5050962;28;20041;-79
2020/12/28 05:22:32;;;;;;;18.73;11.15;;;;;;;;;;5071038;28;20052;-81
2020/12/28 05:25:00;;;;;;;22.58;12.77;;;;;;;;;;5070601;28;20063;-82
2020/12/28 05:27:27;;;;;;;20.00;10.32;;;;;;;;;;5055984;28;20044;-81
2020/12/28 05:29:57;;;;;;;15.45;10.00;;;;;;;;;;5071231;28;20057;-80
2020/12/28 05:32:26;;;;;;;16.25;9.27;;;;;;;;;;5054043;28;20413;-80
2020/12/28 05:34:55;;;;;;;19.10;9.45;;;;;;;;;;5070792;28;20114;-81
2020/12/28 05:37:24;;;;;;;19.70;10.48;;;;;;;;;;5070892;28;20109;-80
2020/12/28 05:39:52;;;;;;;15.75;8.73;;;;;;;;;;5070562;28;20041;-80
2020/12/28 05:42:20;;;;;;;15.40;8.63;;;;;;;;;;5070163;28;20061;-80
2020/12/28 05:44:47;;;;;;;16.20;8.35;;;;;;;;;;5070761;28;20062;-80
2020/12/28 05:47:18;;;;;;;17.95;9.80;;;;;;;;;;5052303;28;20066;-79
2020/12/28 05:49:49;;;;;;;22.92;10.60;;;;;;;;;;5059330;28;20047;-79
2020/12/28 05:52:17;;;;;;;15.05;8.52;;;;;;;;;;5052349;28;20795;-79
2020/12/28 05:54:45;;;;;;;16.42;9.45;;;;;;;;;;5068981;28;20059;-79
2020/12/28 05:57:13;;;;;;;16.98;8.98;;;;;;;;;;5053140;28;20056;-81
2020/12/28 05:59:40;;;;;;;17.73;10.48;;;;;;;;;;5070416;28;20452;-80
2020/12/28 06:02:09;;;;;;;23.80;10.65;;;;;;;;;;5053627;28;20071;-80
2020/12/28 06:04:39;;;;;;;16.73;8.32;;;;;;;;;;5037897;28;20040;-81
2020/12/28 06:07:06;;;;;;;15.00;8.68;;;;;;;;;;5077468;28;20791;-80
2020/12/28 06:09:34;;;;;;;19.88;8.30;;;;;;;;;;5070719;28;20045;-80
2020/12/28 06:12:09;;;;;;;17.45;9.80;;;;;;;;;;5070519;28;20048;-80
2020/12/28 06:14:41;;;;;;;16.08;9.88;;;;;;;;;;5054565;28;20534;-80
2020/12/28 06:17:10;;;;;;;26.00;16.98;;;;;;;;;;5064704;28;20450;-81
2020/12/28 06:19:40;;;;;;;32.80;14.63;;;;;;;;;;5081040;28;20047;-80
2020/12/28 06:22:24;;;;;;;21.38;10.73;;;;;;;;;;5074214;28;20056;-80
2020/12/28 06:25:06;;;;;;;18.77;10.13;;;;;;;;;;5080714;28;20067;-80
2020/12/28 06:27:44;;;;;;;17.75;10.32;;;;;;;;;;5081336;28;20041;-80
2020/12/28 06:30:16;;;;;;;24.30;12.63;;;;;;;;;;5075138;28;20794;-85
2020/12/28 06:32:45;;;;;;;;;;;;;;;;;;5064010;28;20051;-79
2020/12/28 06:35:15;;;;;;;19.33;10.25;;;;;;;;;;5060578;28;19927;-78
2020/12/28 06:37:50;;;;;;;18.95;9.85;;;;;;;;;;5073383;28;20190;-74
2020/12/28 06:40:51;;;;;;;18.40;8.20;;;;;;;;;;5064682;28;20391;-76
2020/12/28 06:43:20;;;;;;;13.68;7.30;;;;;;;;;;5014691;28;20084;-76
2020/12/28 06:45:50;;;;;;;15.18;7.95;;;;;;;;;;4995981;28;20058;-76
2020/12/28 06:48:21;;;;;;;14.93;9.63;;;;;;;;;;5013220;28;20050;-76
2020/12/28 06:50:50;;;;;;;;;;;;;;;;;;4982063;28;20077;-75
2020/12/28 06:53:27;;;;;;;14.18;7.82;;;;;;;;;;5001895;28;20369;-77
2020/12/28 06:56:09;;;;;;;19.83;12.13;;;;;;;;;;5019830;28;20050;-77
2020/12/28 06:58:38;;;;;;;17.52;10.23;;;;;;;;;;4981174;28;20495;-76
2020/12/28 07:01:06;;;;;;;18.45;11.32;;;;;;;;;;4964631;28;20136;-76
2020/12/28 07:03:34;;;;;;;21.75;12.07;;;;;;;;;;4979958;28;20145;-76
2020/12/28 07:06:04;;;;;;;20.23;13.80;;;;;;;;;;4979622;28;20054;-79
2020/12/28 07:08:39;;;;;;;17.40;10.90;;;;;;;;;;4962864;28;20193;-74
2020/12/28 07:11:07;;;;;;;22.77;14.88;;;;;;;;;;5002495;28;20073;-74
2020/12/28 07:13:35;;;;;;;17.92;11.52;;;;;;;;;;5011142;28;20413;-74
2020/12/28 07:16:06;;;;;;;29.95;15.45;;;;;;;;;;4978557;28;20132;-74
2020/12/28 07:18:34;;;;;;;24.02;10.43;;;;;;;;;;4963262;28;20063;-74
2020/12/28 07:21:03;;;;;;;16.15;8.52;;;;;;;;;;5058773;28;20123;-74
2020/12/28 07:23:33;;;;;;;17.45;7.82;;;;;;;;;;5055330;28;20056;-74
2020/12/28 07:26:09;;;;;;;10.40;5.93;;;;;;;;;;5071962;28;20075;-74
2020/12/28 07:28:40;;;;;;;12.63;7.70;;;;;;;;;;5061877;28;20058;-74
2020/12/28 07:31:08;;;;;;;16.27;8.43;;;;;;;;;;5062646;28;20079;-74
2020/12/28 07:33:49;;;;;;;16.38;9.25;;;;;;;;;;5054814;28;20052;-74
2020/12/28 07:36:25;;;;;;;16.85;10.00;;;;;;;;;;5078395;28;20094;-81
2020/12/28 07:38:56;;;;;;;9.05;5.93;;;;;;;;;;5061638;28;20123;-77
2020/12/28 07:41:24;;;;;;;14.00;7.40;;;;;;;;;;5071861;28;20064;-76
2020/12/28 07:43:58;;;;;;;11.13;6.88;;;;;;;;;;5078490;28;20127;-78
2020/12/28 07:46:51;;;;;;;13.82;5.75;;;;;;;;;;5061511;28;20124;-74
2020/12/28 07:49:25;;;;;;;12.57;6.00;;;;;;;;;;5075929;28;20471;-74
2020/12/28 07:52:21;;;;;;;9.20;5.20;;;;;;;;;;5060238;28;20044;-74
2020/12/28 07:55:16;;;;;;;14.75;6.97;;;;;;;;;;5093218;28;20044;-74
2020/12/28 07:58:36;;;;;;;9.15;5.60;;;;;;;;;;5055591;28;20075;-76
2020/12/28 08:01:18;;;;;;;12.90;5.45;;;;;;;;;;5057581;28;20132;-76
2020/12/28 08:03:48;;;;;;;12.52;6.38;;;;;;;;;;5040123;28;20055;-75
2020/12/28 08:06:16;;;;;;;8.55;5.57;;;;;;;;;;5071471;28;20052;-76
2020/12/28 08:08:43;;;;;;;8.43;5.60;;;;;;;;;;5072494;28;20056;-76
2020/12/28 08:11:14;;;;;;;9.88;5.95;;;;;;;;;;5078944;28;20072;-75
2020/12/28 08:13:42;;;;;;;12.23;7.57;;;;;;;;;;5055239;28;20476;-75
2020/12/28 08:16:14;;;;;;;15.15;5.90;;;;;;;;;;5072674;28;20095;-74
2020/12/28 08:18:55;;;;;;;15.60;6.65;;;;;;;;;;5077760;28;20036;-73
2020/12/28 08:21:23;;;;;;;10.25;5.95;;;;;;;;;;5065510;28;20057;-72
2020/12/28 08:24:00;;;;;;;10.43;5.63;;;;;;;;;;5063161;28;20041;-71
2020/12/28 08:26:31;;;;;;;12.43;5.60;;;;;;;;;;5064174;28;20040;-73
2020/12/28 08:29:01;;;;;;;11.35;6.47;;;;;;;;;;5052603;28;20755;-72
2020/12/28 08:31:34;;;;;;;10.43;5.70;;;;;;;;;;5050966;28;20052;-72
2020/12/28 08:34:05;;;;;;;8.77;5.10;;;;;;;;;;5055274;28;20041;-73
2020/12/28 08:36:36;;;;;;;10.30;4.75;;;;;;;;;;5032000;28;20473;-72
2020/12/28 08:39:27;;;;;;;8.80;5.18;;;;;;;;;;5048589;28;20056;-73
2020/12/28 08:41:58;;;;;;;10.90;5.20;;;;;;;;;;5069268;28;20538;-73
2020/12/28 08:44:37;;;;;;;11.87;5.53;;;;;;;;;;5048477;28;20065;-73
2020/12/28 08:47:11;;;;;;;12.55;6.65;;;;;;;;;;5032466;28;20122;-73
2020/12/28 08:49:41;;;;;;;20.55;9.38;;;;;;;;;;5049274;28;20067;-71
2020/12/28 08:52:17;;;;;;;28.85;13.70;;;;;;;;;;5048701;28;20048;-74
2020/12/28 08:54:57;;;;;;;17.40;8.77;;;;;;;;;;5051894;28;20045;-72
2020/12/28 08:57:27;;;;;;;14.55;6.38;;;;;;;;;;5048524;28;20451;-73
2020/12/28 08:59:58;;;;;;;20.50;12.07;;;;;;;;;;5049204;28;20111;-72
2020/12/28 09:02:28;;;;;;;24.55;13.60;;;;;;;;;;5048317;28;20056;-71
2020/12/28 09:04:57;;;;;;;25.23;14.27;;;;;;;;;;5064895;28;20071;-72
2020/12/28 09:07:25;;;;;;;14.63;9.10;;;;;;;;;;5051805;28;20041;-72
2020/12/28 09:09:54;;;;;;;17.85;10.95;;;;;;;;;;5050696;28;20112;-71
2020/12/28 09:12:22;;;;;;;11.15;5.97;;;;;;;;;;5049294;28;20063;-72
2020/12/28 09:14:49;;;;;;;18.88;9.20;;;;;;;;;;5049242;28;20068;-71
2020/12/28 09:17:18;;;;;;;21.63;12.10;;;;;;;;;;5052917;28;20048;-72
2020/12/28 09:19:46;;;;;;;12.88;7.22;;;;;;;;;;5049523;28;20127;-73
2020/12/28 09:22:14;;;;;;;10.55;6.13;;;;;;;;;;5051858;28;20044;-73
2020/12/28 09:24:41;;;;;;;8.77;6.00;;;;;;;;;;5049359;28;20662;-73
2020/12/28 09:27:09;;;;;;;11.88;7.35;;;;;;;;;;5048395;28;20045;-73
2020/12/28 09:29:37;;;;;;;15.50;9.48;;;;;;;;;;5049331;28;20037;-73
2020/12/28 09:32:05;;;;;;;9.32;6.53;;;;;;;;;;5053381;28;20049;-72
2020/12/28 09:34:35;;;;;;;13.75;8.95;;;;;;;;;;5051450;28;20095;-73
2020/12/28 09:37:06;;;;;;;11.43;8.48;;;;;;;;;;5031662;28;20057;-73
2020/12/28 09:39:35;;;;;;;10.38;6.30;;;;;;;;;;5031647;28;20143;-73
2020/12/28 09:42:03;;;;;;;9.07;5.20;;;;;;;;;;5054658;28;20446;-73
2020/12/28 09:44:31;;;;;;;9.27;4.75;;;;;;;;;;5048223;28;20539;-72
2020/12/28 09:46:59;;;;;;;8.10;5.70;;;;;;;;;;5052502;28;20051;-73
2020/12/28 09:49:27;;;;;;;7.68;5.35;;;;;;;;;;5050048;28;20052;-73
2020/12/28 09:51:55;;;;;;;13.40;5.95;;;;;;;;;;5051434;28;20656;-71
2020/12/28 09:54:24;;;;;;;11.73;6.32;;;;;;;;;;5053095;28;20581;-72
2020/12/28 09:57:05;;;;;;;11.65;7.00;;;;;;;;;;5056279;28;20044;-72
2020/12/28 09:59:39;;;;;;;13.02;6.93;;;;;;;;;;5054443;28;20053;-73
2020/12/28 10:02:08;;;;;;;13.13;7.80;;;;;;;;;;5052069;28;20052;-72
2020/12/28 10:04:35;;;;;;;14.57;8.07;;;;;;;;;;5052803;28;20057;-72
2020/12/28 10:07:03;;;;;;;14.20;8.30;;;;;;;;;;5034815;28;20096;-72
2020/12/28 10:09:31;;;;;;;14.98;9.63;;;;;;;;;;5051471;28;20419;-72
2020/12/28 10:11:58;;;;;;;20.88;9.05;;;;;;;;;;5052630;28;20139;-72
2020/12/28 10:14:26;;;;;;;18.20;9.40;;;;;;;;;;5054715;28;20049;-74
2020/12/28 10:16:55;;;;;;;34.17;16.48;;;;;;;;;;5052272;28;20049;-72
2020/12/28 10:19:22;;;;;;;18.65;9.80;;;;;;;;;;5052642;28;20045;-72
2020/12/28 10:21:50;;;;;;;22.67;12.23;;;;;;;;;;5057202;28;20081;-73
2020/12/28 10:24:18;;;;;;;23.27;14.07;;;;;;;;;;5054832;28;20059;-72
2020/12/28 10:26:45;;;;;;;22.15;12.63;;;;;;;;;;5050953;28;20071;-72
2020/12/28 10:29:12;;;;;;;19.73;9.80;;;;;;;;;;5054142;28;20091;-72
2020/12/28 10:31:41;;;;;;;22.55;10.98;;;;;;;;;;5052881;28;20053;-72
2020/12/28 10:34:08;;;;;;;28.80;17.38;;;;;;;;;;5050437;28;20087;-74
2020/12/28 10:36:36;;;;;;;22.40;11.40;;;;;;;;;;5056098;28;20041;-72
2020/12/28 10:39:23;;;;;;;22.27;12.40;;;;;;;;;;5053481;28;20055;-72
2020/12/28 10:41:51;;;;;;;24.05;15.30;;;;;;;;;;5068698;28;20037;-72
2020/12/28 10:44:19;;;;;;;19.33;11.07;;;;;;;;;;5051000;28;20136;-73
2020/12/28 10:46:47;;;;;;;24.55;12.93;;;;;;;;;;5050860;28;20041;-72
2020/12/28 10:49:14;;;;;;;20.25;12.40;;;;;;;;;;5050629;28;20079;-72
2020/12/28 10:51:45;;;;;;;19.35;12.48;;;;;;;;;;5037369;28;20045;-72
2020/12/28 10:54:12;;;;;;;20.23;11.02;;;;;;;;;;5052027;28;20060;-72
2020/12/28 10:56:40;;;;;;;17.77;11.18;;;;;;;;;;5051559;28;20126;-72
2020/12/28 10:59:11;;;;;;;17.70;9.82;;;;;;;;;;5055899;28;20442;-72
2020/12/28 11:01:39;;;;;;;15.48;8.68;;;;;;;;;;5053834;28;20055;-72
2020/12/28 11:04:07;;;;;;;17.85;7.97;;;;;;;;;;5051405;28;20474;-71
2020/12/28 11:06:41;;;;;;;12.88;8.23;;;;;;;;;;5051396;28;20063;-71
2020/12/28 11:09:09;;;;;;;16.95;8.77;;;;;;;;;;5052493;28;20091;-72
2020/12/28 11:11:36;;;;;;;18.80;9.98;;;;;;;;;;5050188;28;20108;-72
2020/12/28 11:14:06;;;;;;;21.23;11.40;;;;;;;;;;5054604;28;20056;-73
2020/12/28 11:16:33;;;;;;;20.73;11.70;;;;;;;;;;5066334;28;20069;-73
2020/12/28 11:19:01;;;;;;;16.63;7.90;;;;;;;;;;5049921;28;20088;-73
2020/12/28 11:21:28;;;;;;;14.77;7.35;;;;;;;;;;5049913;28;20669;-73
2020/12/28 11:23:59;;;;;;;14.73;9.18;;;;;;;;;;5057591;28;20041;-73
2020/12/28 11:26:37;;;;;;;15.18;8.13;;;;;;;;;;5075624;28;20050;-73
2020/12/28 11:29:06;;;;;;;13.90;7.82;;;;;;;;;;5063475;28;20037;-72
2020/12/28 11:31:34;;;;;;;16.77;10.18;;;;;;;;;;5071726;28;20351;-73
2020/12/28 11:34:01;;;;;;;19.23;9.85;;;;;;;;;;5070961;28;20131;-73
2020/12/28 11:36:29;;;;;;;16.92;7.57;;;;;;;;;;5086104;28;20396;-73
2020/12/28 11:38:56;;;;;;;14.90;8.07;;;;;;;;;;5068917;28;20053;-73
2020/12/28 11:41:24;;;;;;;15.43;8.23;;;;;;;;;;5068795;28;20101;-73
2020/12/28 11:43:52;;;;;;;13.75;8.75;;;;;;;;;;5072588;28;20095;-73
2020/12/28 11:46:20;;;;;;;13.25;7.85;;;;;;;;;;5033369;28;20044;-74
2020/12/28 11:48:48;;;;;;;22.35;10.88;;;;;;;;;;5050497;28;20061;-73
2020/12/28 11:51:17;;;;;;;13.57;8.27;;;;;;;;;;5054873;28;20045;-73
2020/12/28 11:53:46;;;;;;;15.98;10.10;;;;;;;;;;5050809;28;20041;-73
2020/12/28 11:56:14;;;;;;;18.08;10.27;;;;;;;;;;5052122;28;20049;-73
2020/12/28 11:58:45;;;;;;;23.25;11.88;;;;;;;;;;5055064;28;20147;-74
2020/12/28 12:01:18;;;;;;;20.38;10.50;;;;;;;;;;5069421;28;20056;-74
2020/12/28 12:03:48;;;;;;;18.80;10.10;;;;;;;;;;5052220;28;20052;-74
2020/12/28 12:06:21;;;;;;;17.67;9.13;;;;;;;;;;5062611;28;20049;-74
2020/12/28 12:11:47;;;;;;;18.10;9.60;;;;;;;;;;5065726;28;20041;-74
2020/12/28 12:14:16;;;;;;;20.58;11.77;;;;;;;;;;5053414;28;20059;-74
2020/12/28 12:16:57;;;;;;;20.38;11.07;;;;;;;;;;5037681;28;20055;-73
2020/12/28 12:19:25;;;;;;;30.17;15.90;;;;;;;;;;5038240;28;20076;-73
2020/12/28 12:21:55;;;;;;;29.45;15.75;;;;;;;;;;5035009;28;20804;-72
2020/12/28 12:24:23;;;;;;;22.25;12.20;;;;;;;;;;5033796;28;20061;-73
2020/12/28 12:26:51;;;;;;;22.77;12.02;;;;;;;;;;5038686;28;20083;-73
2020/12/28 12:29:19;;;;;;;22.23;11.50;;;;;;;;;;5058747;28;20044;-80
2020/12/28 12:31:52;;;;;;;18.67;10.27;;;;;;;;;;5056845;28;20068;-77
2020/12/28 12:34:20;;;;;;;22.42;12.65;;;;;;;;;;5068402;28;20401;-77
2020/12/28 12:36:49;;;;;;;23.63;12.90;;;;;;;;;;5079458;28;20056;-74
2020/12/28 12:39:17;;;;;;;23.15;14.02;;;;;;;;;;5070444;28;20045;-75
2020/12/28 12:41:47;;;;;;;35.38;20.55;;;;;;;;;;5048554;28;20068;-75
2020/12/28 12:44:15;;;;;;;33.38;19.95;;;;;;;;;;5072962;28;20131;-74
2020/12/28 12:46:43;;;;;;;40.00;23.05;;;;;;;;;;5066580;28;20044;-74
2020/12/28 12:49:11;;;;;;;24.27;15.75;;;;;;;;;;5065356;28;20053;-75
2020/12/28 12:51:39;;;;;;;28.92;15.93;;;;;;;;;;5064329;28;20118;-75
2020/12/28 12:54:06;;;;;;;26.70;16.48;;;;;;;;;;5055292;28;20380;-75
2020/12/28 12:56:34;;;;;;;32.72;16.38;;;;;;;;;;5048677;28;20550;-75
2020/12/28 12:59:02;;;;;;;148.27;84.03;;;;;;;;;;5064816;28;20064;-76
2020/12/28 13:01:29;;;;;;;141.43;81.63;;;;;;;;;;5066385;28;20064;-75
2020/12/28 13:03:57;;;;;;;53.50;25.40;;;;;;;;;;5051736;28;20060;-75
2020/12/28 13:06:26;;;;;;;37.05;23.27;;;;;;;;;;5069543;28;20075;-76
2020/12/28 13:08:54;;;;;;;29.42;15.68;;;;;;;;;;5074922;28;20044;-76
2020/12/28 13:11:22;;;;;;;28.00;16.27;;;;;;;;;;5041738;28;20052;-73
2020/12/28 13:13:49;;;;;;;32.63;20.77;;;;;;;;;;5071227;28;20060;-77
2020/12/28 13:16:18;;;;;;;28.25;18.05;;;;;;;;;;5062930;28;20040;-76
2020/12/28 13:18:46;;;;;;;18.77;11.82;;;;;;;;;;5076726;28;20120;-76
2020/12/28 13:21:14;;;;;;;19.23;13.75;;;;;;;;;;5076917;28;20204;-78
2020/12/28 13:23:41;;;;;;;28.25;16.55;;;;;;;;;;5087581;28;20048;-77
2020/12/28 13:26:09;;;;;;;30.20;18.15;;;;;;;;;;5075360;28;20062;-74
2020/12/28 13:28:37;;;;;;;60.72;32.90;;;;;;;;;;5083236;28;20068;-75
2020/12/28 13:31:04;;;;;;;41.63;23.00;;;;;;;;;;5050845;28;20048;-75
2020/12/28 13:33:32;;;;;;;39.55;20.42;;;;;;;;;;5054042;28;20475;-82
2020/12/28 13:36:00;;;;;;;26.80;14.93;;;;;;;;;;5068604;28;20106;-76
2020/12/28 13:38:27;;;;;;;57.25;27.88;;;;;;;;;;5051751;28;20067;-76
2020/12/28 13:40:56;;;;;;;41.03;21.48;;;;;;;;;;5076294;28;20559;-76
2020/12/28 13:43:24;;;;;;;36.65;19.33;;;;;;;;;;5069058;28;20090;-77
2020/12/28 13:45:58;;;;;;;27.00;17.30;;;;;;;;;;5075973;28;20545;-76
2020/12/28 13:48:26;;;;;;;31.08;16.38;;;;;;;;;;5084041;28;20377;-76
2020/12/28 13:50:54;;;;;;;29.73;17.55;;;;;;;;;;5076708;28;20531;-75
2020/12/28 13:53:21;;;;;;;70.40;32.08;;;;;;;;;;5067422;28;20111;-75
2020/12/28 13:55:49;;;;;;;76.32;38.15;;;;;;;;;;5051059;28;20131;-75
2020/12/28 13:58:17;;;;;;;58.30;27.77;;;;;;;;;;5063914;28;20067;-75
2020/12/28 14:00:44;;;;;;;38.00;19.48;;;;;;;;;;5048741;28;20049;-75
2020/12/28 14:03:12;;;;;;;34.47;18.42;;;;;;;;;;5054236;28;20041;-75
2020/12/28 14:05:43;;;;;;;27.67;14.88;;;;;;;;;;5080036;28;20152;-74
2020/12/28 14:08:13;;;;;;;26.83;15.43;;;;;;;;;;5066469;28;20133;-74
2020/12/28 14:10:41;;;;;;;28.60;16.55;;;;;;;;;;5067555;28;20044;-76
2020/12/28 14:13:10;;;;;;;24.42;16.98;;;;;;;;;;5067420;28;20110;-75
2020/12/28 14:15:39;;;;;;;26.05;12.40;;;;;;;;;;5056530;28;20047;-76
2020/12/28 14:18:06;;;;;;;28.35;19.05;;;;;;;;;;5052062;28;20450;-76
2020/12/28 14:20:34;;;;;;;25.33;18.33;;;;;;;;;;5054428;28;20048;-75
2020/12/28 14:23:02;;;;;;;28.13;20.58;;;;;;;;;;5043102;28;20156;-75
2020/12/28 14:25:30;;;;;;;29.40;14.55;;;;;;;;;;5067902;28;20056;-75
2020/12/28 14:27:57;;;;;;;22.55;14.05;;;;;;;;;;5067116;28;20133;-73
2020/12/28 14:30:25;;;;;;;24.92;14.95;;;;;;;;;;5067873;28;20450;-74
2020/12/28 14:32:53;;;;;;;25.52;15.55;;;;;;;;;;5066364;28;20052;-75
2020/12/28 14:35:21;;;;;;;17.02;13.88;;;;;;;;;;5065995;28;20082;-74
2020/12/28 14:37:49;;;;;;;29.35;21.45;;;;;;;;;;5067195;28;20063;-74
2020/12/28 14:40:16;;;;;;;27.02;17.40;;;;;;;;;;5038819;28;21489;-75
2020/12/28 14:42:44;;;;;;;23.10;15.27;;;;;;;;;;5069885;28;20076;-76
2020/12/28 14:45:12;;;;;;;22.08;14.80;;;;;;;;;;5072437;28;20068;-76
2020/12/28 14:47:40;;;;;;;36.47;20.50;;;;;;;;;;5072093;28;20060;-76
2020/12/28 14:50:07;;;;;;;37.40;25.60;;;;;;;;;;5070830;28;20060;-76
2020/12/28 14:52:36;;;;;;;58.20;35.65;;;;;;;;;;5070353;28;20159;-76
2020/12/28 14:55:04;;;;;;;33.63;21.58;;;;;;;;;;5054049;28;20566;-76